createdAt,value
2023-03-24T00:00:10.846Z,27.58
2023-03-24T00:00:40.840Z,27.54
2023-03-24T00:01:10.957Z,27.53
2023-03-24T00:01:41.088Z,27.53
2023-03-24T00:02:11.258Z,27.53
2023-03-24T00:02:41.290Z,27.54
2023-03-24T00:03:11.438Z,27.54
2023-03-24T00:03:41.451Z,27.53
2023-03-24T00:04:11.395Z,27.53
2023-03-24T00:04:41.438Z,27.56
2023-03-24T00:05:11.433Z,27.53
2023-03-24T00:05:41.490Z,27.54
2023-03-24T00:06:11.605Z,27.53
2023-03-24T00:06:41.730Z,27.54
2023-03-24T00:07:11.742Z,27.53
2023-03-24T00:07:41.843Z,27.54
2023-03-24T00:08:11.977Z,27.53
2023-03-24T00:08:41.966Z,27.53
2023-03-24T00:09:42.037Z,27.51
2023-03-24T00:10:12.036Z,27.54
2023-03-24T00:11:12.114Z,27.54
2023-03-24T00:11:42.134Z,27.54
2023-03-24T00:12:12.228Z,27.54
2023-03-24T00:12:42.220Z,27.53
2023-03-24T00:13:12.333Z,27.54
2023-03-24T00:13:42.323Z,27.53
2023-03-24T00:14:12.452Z,27.53
2023-03-24T00:14:42.565Z,27.51
2023-03-24T00:15:12.565Z,27.51
2023-03-24T00:16:12.691Z,27.51
2023-03-24T00:16:43.047Z,27.53
2023-03-24T00:17:12.725Z,27.50
2023-03-24T00:17:42.861Z,27.53
2023-03-24T00:18:12.955Z,27.53
2023-03-24T00:18:42.969Z,27.53
2023-03-24T00:19:12.966Z,27.51
2023-03-24T00:19:43.081Z,27.51
2023-03-24T00:20:13.208Z,27.50
2023-03-24T00:20:43.405Z,27.51
2023-03-24T00:21:13.360Z,27.50
2023-03-24T00:21:43.350Z,27.50
2023-03-24T00:22:13.469Z,27.51
2023-03-24T00:22:43.468Z,27.50
2023-03-24T00:23:13.577Z,27.51
2023-03-24T00:23:43.577Z,27.50
2023-03-24T00:24:13.692Z,27.50
2023-03-24T00:24:43.817Z,27.50
2023-03-24T00:25:13.814Z,27.49
2023-03-24T00:25:43.929Z,27.50
2023-03-24T00:26:14.046Z,27.50
2023-03-24T00:26:44.183Z,27.50
2023-03-24T00:27:14.167Z,27.50
2023-03-24T00:27:44.285Z,27.51
2023-03-24T00:28:14.403Z,27.51
2023-03-24T00:28:44.518Z,27.49
2023-03-24T00:29:14.517Z,27.50
2023-03-24T00:30:14.597Z,27.50
2023-03-24T00:30:44.916Z,27.50
2023-03-24T00:31:14.794Z,27.47
2023-03-24T00:31:44.748Z,27.50
2023-03-24T00:32:14.822Z,27.50
2023-03-24T00:32:44.990Z,27.50
2023-03-24T00:33:14.994Z,27.47
2023-03-24T00:33:45.069Z,27.50
2023-03-24T00:34:15.147Z,27.50
2023-03-24T00:34:45.222Z,27.50
2023-03-24T00:35:15.300Z,27.49
2023-03-24T00:35:45.397Z,27.47
2023-03-24T00:36:15.462Z,27.51
2023-03-24T00:36:45.541Z,27.49
2023-03-24T00:37:15.634Z,27.47
2023-03-24T00:37:45.726Z,27.49
2023-03-24T00:38:15.794Z,27.50
2023-03-24T00:38:45.873Z,27.47
2023-03-24T00:39:15.949Z,27.46
2023-03-24T00:39:46.034Z,27.50
2023-03-24T00:40:16.127Z,27.49
2023-03-24T00:40:46.368Z,27.47
2023-03-24T00:41:16.267Z,27.47
2023-03-24T00:41:46.346Z,27.49
2023-03-24T00:42:16.458Z,27.47
2023-03-24T00:42:46.530Z,27.47
2023-03-24T00:43:16.522Z,27.47
2023-03-24T00:43:46.638Z,27.49
2023-03-24T00:44:16.631Z,27.49
2023-03-24T00:44:46.752Z,27.47
2023-03-24T00:45:16.865Z,27.46
2023-03-24T00:45:46.985Z,27.49
2023-03-24T00:46:17.013Z,27.49
2023-03-24T00:47:17.057Z,27.49
2023-03-24T00:47:47.069Z,27.49
2023-03-24T00:48:17.169Z,27.49
2023-03-24T00:48:47.298Z,27.46
2023-03-24T00:49:17.282Z,27.47
2023-03-24T00:50:17.349Z,27.44
2023-03-24T00:50:47.470Z,27.46
2023-03-24T00:51:17.592Z,27.47
2023-03-24T00:51:47.585Z,27.47
2023-03-24T00:52:17.706Z,27.46
2023-03-24T00:52:47.709Z,27.44
2023-03-24T00:53:17.819Z,27.44
2023-03-24T00:53:47.937Z,27.46
2023-03-24T00:54:17.931Z,27.49
2023-03-24T00:55:18.024Z,27.47
2023-03-24T00:55:48.141Z,27.46
2023-03-24T00:56:18.133Z,27.47
2023-03-24T00:56:48.220Z,27.46
2023-03-24T00:57:18.263Z,27.47
2023-03-24T00:57:48.228Z,27.44
2023-03-24T00:58:18.343Z,27.46
2023-03-24T00:58:48.458Z,27.46
2023-03-24T00:59:18.578Z,27.47
2023-03-24T00:59:48.734Z,27.44
2023-03-24T01:00:18.697Z,27.47
2023-03-24T01:01:18.836Z,27.46
2023-03-24T01:01:48.898Z,27.46
2023-03-24T01:02:18.994Z,27.46
2023-03-24T01:02:49.070Z,27.46
2023-03-24T01:03:19.080Z,27.46
2023-03-24T01:03:49.183Z,27.44
2023-03-24T01:04:19.171Z,27.49
2023-03-24T01:04:49.290Z,27.44
2023-03-24T01:05:19.413Z,27.44
2023-03-24T01:05:49.402Z,27.46
2023-03-24T01:06:49.478Z,27.44
2023-03-24T01:07:19.590Z,27.47
2023-03-24T01:07:49.748Z,27.46
2023-03-24T01:08:19.717Z,27.46
2023-03-24T01:08:49.834Z,27.43
2023-03-24T01:09:19.828Z,27.43
2023-03-24T01:10:19.911Z,27.41
2023-03-24T01:10:49.918Z,27.46
2023-03-24T01:11:19.918Z,27.44
2023-03-24T01:12:20.041Z,27.43
2023-03-24T01:12:50.024Z,27.44
2023-03-24T01:13:20.161Z,27.43
2023-03-24T01:13:50.250Z,27.46
2023-03-24T01:14:20.276Z,27.41
2023-03-24T01:14:50.287Z,27.44
2023-03-24T01:15:20.378Z,27.41
2023-03-24T01:15:50.492Z,27.47
2023-03-24T01:16:20.527Z,27.44
2023-03-24T01:16:50.496Z,27.44
2023-03-24T01:17:20.610Z,27.43
2023-03-24T01:17:50.769Z,27.41
2023-03-24T01:18:20.778Z,27.44
2023-03-24T01:18:50.814Z,27.41
2023-03-24T01:19:21.086Z,27.43
2023-03-24T01:19:50.930Z,27.44
2023-03-24T01:20:51.017Z,27.43
2023-03-24T01:21:21.023Z,27.43
2023-03-24T01:22:21.088Z,27.43
2023-03-24T01:22:51.111Z,27.43
2023-03-24T01:23:51.158Z,27.46
2023-03-24T01:24:21.152Z,27.44
2023-03-24T01:25:21.230Z,27.41
2023-03-24T01:25:51.346Z,27.44
2023-03-24T01:26:21.338Z,27.44
2023-03-24T01:27:21.407Z,27.41
2023-03-24T01:27:51.471Z,27.41
2023-03-24T01:28:21.478Z,27.41
2023-03-24T01:28:51.600Z,27.40
2023-03-24T01:29:21.718Z,27.44
2023-03-24T01:29:51.842Z,27.43
2023-03-24T01:30:21.855Z,27.39
2023-03-24T01:30:51.944Z,27.40
2023-03-24T01:31:22.075Z,27.43
2023-03-24T01:31:52.084Z,27.40
2023-03-24T01:32:22.087Z,27.41
2023-03-24T01:32:52.260Z,27.39
2023-03-24T01:33:22.164Z,27.41
2023-03-24T01:33:52.240Z,27.40
2023-03-24T01:34:22.319Z,27.40
2023-03-24T01:34:52.433Z,27.40
2023-03-24T01:35:22.532Z,27.39
2023-03-24T01:35:52.630Z,27.40
2023-03-24T01:36:22.709Z,27.39
2023-03-24T01:36:52.789Z,27.41
2023-03-24T01:37:22.874Z,27.41
2023-03-24T01:37:52.958Z,27.43
2023-03-24T01:38:23.036Z,27.41
2023-03-24T01:38:53.117Z,27.41
2023-03-24T01:39:23.196Z,27.41
2023-03-24T01:39:53.283Z,27.40
2023-03-24T01:40:23.354Z,27.41
2023-03-24T01:40:53.437Z,27.40
2023-03-24T01:41:23.514Z,27.41
2023-03-24T01:41:53.594Z,27.40
2023-03-24T01:42:23.690Z,27.40
2023-03-24T01:42:53.807Z,27.43
2023-03-24T01:43:23.778Z,27.41
2023-03-24T01:43:53.885Z,27.39
2023-03-24T01:44:23.890Z,27.39
2023-03-24T01:44:53.892Z,27.37
2023-03-24T01:45:53.998Z,27.37
2023-03-24T01:46:24.050Z,27.40
2023-03-24T01:46:54.035Z,27.40
2023-03-24T01:47:24.123Z,27.37
2023-03-24T01:47:54.180Z,27.39
2023-03-24T01:48:24.167Z,27.37
2023-03-24T01:48:54.170Z,27.40
2023-03-24T01:49:24.163Z,27.39
2023-03-24T01:50:24.233Z,27.40
2023-03-24T01:50:54.236Z,27.40
2023-03-24T01:51:24.255Z,27.39
2023-03-24T01:51:54.239Z,27.36
2023-03-24T01:52:54.311Z,27.39
2023-03-24T01:53:24.423Z,27.37
2023-03-24T01:53:54.543Z,27.36
2023-03-24T01:54:24.666Z,27.40
2023-03-24T01:54:54.781Z,27.37
2023-03-24T01:55:24.781Z,27.36
2023-03-24T01:55:54.887Z,27.39
2023-03-24T01:56:24.900Z,27.37
2023-03-24T01:56:54.954Z,27.39
2023-03-24T01:57:24.944Z,27.39
2023-03-24T01:57:54.942Z,27.37
2023-03-24T01:58:24.966Z,27.39
2023-03-24T01:58:54.948Z,27.39
2023-03-24T01:59:25.068Z,27.37
2023-03-24T01:59:55.072Z,27.39
2023-03-24T02:00:55.207Z,27.36
2023-03-24T02:01:25.214Z,27.37
2023-03-24T02:01:55.201Z,27.36
2023-03-24T02:02:25.357Z,27.36
2023-03-24T02:02:55.396Z,27.37
2023-03-24T02:03:25.402Z,27.36
2023-03-24T02:03:55.550Z,27.36
2023-03-24T02:04:25.667Z,27.36
2023-03-24T02:04:55.593Z,27.34
2023-03-24T02:05:25.707Z,27.37
2023-03-24T02:05:55.700Z,27.39
2023-03-24T02:06:55.796Z,27.34
2023-03-24T02:07:25.909Z,27.37
2023-03-24T02:07:56.029Z,27.36
2023-03-24T02:08:26.026Z,27.36
2023-03-24T02:08:56.157Z,27.34
2023-03-24T02:09:26.147Z,27.37
2023-03-24T02:10:26.242Z,27.34
2023-03-24T02:10:56.236Z,27.34
2023-03-24T02:11:56.304Z,27.34
2023-03-24T02:12:26.419Z,27.34
2023-03-24T02:12:56.421Z,27.37
2023-03-24T02:13:26.431Z,27.34
2023-03-24T02:13:56.534Z,27.34
2023-03-24T02:14:26.531Z,27.37
2023-03-24T02:15:26.621Z,27.36
2023-03-24T02:15:56.656Z,27.36
2023-03-24T02:16:26.663Z,27.34
2023-03-24T02:16:56.657Z,27.34
2023-03-24T02:17:26.872Z,27.34
2023-03-24T02:17:56.874Z,27.33
2023-03-24T02:18:26.899Z,27.36
2023-03-24T02:18:57.014Z,27.36
2023-03-24T02:19:27.015Z,27.36
2023-03-24T02:20:27.093Z,27.34
2023-03-24T02:20:57.085Z,27.36
2023-03-24T02:21:57.157Z,27.33
2023-03-24T02:22:27.150Z,27.33
2023-03-24T02:22:57.272Z,27.32
2023-03-24T02:23:27.400Z,27.33
2023-03-24T02:23:57.504Z,27.34
2023-03-24T02:24:27.631Z,27.33
2023-03-24T02:24:57.738Z,27.33
2023-03-24T02:25:27.764Z,27.37
2023-03-24T02:25:57.744Z,27.33
2023-03-24T02:26:57.826Z,27.34
2023-03-24T02:27:27.952Z,27.33
2023-03-24T02:27:57.945Z,27.36
2023-03-24T02:28:28.085Z,27.33
2023-03-24T02:28:58.091Z,27.34
2023-03-24T02:29:28.239Z,27.33
2023-03-24T02:29:58.230Z,27.32
2023-03-24T02:30:28.351Z,27.34
2023-03-24T02:30:58.349Z,27.34
2023-03-24T02:31:28.491Z,27.33
2023-03-24T02:31:58.530Z,27.36
2023-03-24T02:32:28.513Z,27.34
2023-03-24T02:32:58.670Z,27.34
2023-03-24T02:33:28.675Z,27.33
2023-03-24T02:33:58.791Z,27.34
2023-03-24T02:34:28.906Z,27.33
2023-03-24T02:34:59.022Z,27.34
2023-03-24T02:35:29.142Z,27.32
2023-03-24T02:35:59.304Z,27.32
2023-03-24T02:36:29.323Z,27.33
2023-03-24T02:36:59.313Z,27.34
2023-03-24T02:37:29.441Z,27.32
2023-03-24T02:37:59.428Z,27.32
2023-03-24T02:38:29.559Z,27.32
2023-03-24T02:38:59.549Z,27.33
2023-03-24T02:39:29.664Z,27.32
2023-03-24T02:39:59.652Z,27.32
2023-03-24T02:40:29.773Z,27.32
2023-03-24T02:40:59.884Z,27.32
2023-03-24T02:41:30.006Z,27.32
2023-03-24T02:41:59.999Z,27.32
2023-03-24T02:42:30.116Z,27.32
2023-03-24T02:43:00.168Z,27.33
2023-03-24T02:43:30.163Z,27.30
2023-03-24T02:44:00.210Z,27.32
2023-03-24T02:44:30.226Z,27.30
2023-03-24T02:45:00.268Z,27.30
2023-03-24T02:45:30.309Z,27.32
2023-03-24T02:46:00.388Z,27.33
2023-03-24T02:46:30.395Z,27.32
2023-03-24T02:47:00.424Z,27.30
2023-03-24T02:47:30.515Z,27.29
2023-03-24T02:48:00.666Z,27.30
2023-03-24T02:48:30.574Z,27.30
2023-03-24T02:49:00.600Z,27.30
2023-03-24T02:49:30.649Z,27.30
2023-03-24T02:50:00.688Z,27.32
2023-03-24T02:50:30.711Z,27.30
2023-03-24T02:51:00.768Z,27.30
2023-03-24T02:51:30.802Z,27.29
2023-03-24T02:52:00.829Z,27.32
2023-03-24T02:52:30.862Z,27.29
2023-03-24T02:53:00.896Z,27.29
2023-03-24T02:53:30.927Z,27.30
2023-03-24T02:54:00.951Z,27.29
2023-03-24T02:54:30.980Z,27.29
2023-03-24T02:55:01.020Z,27.32
2023-03-24T02:55:31.045Z,27.29
2023-03-24T02:56:01.073Z,27.30
2023-03-24T02:56:31.154Z,27.29
2023-03-24T02:57:01.255Z,27.30
2023-03-24T02:57:31.292Z,27.29
2023-03-24T02:58:01.330Z,27.29
2023-03-24T02:58:31.357Z,27.29
2023-03-24T02:59:01.388Z,27.30
2023-03-24T02:59:31.523Z,27.29
2023-03-24T03:00:01.536Z,27.29
2023-03-24T03:00:31.553Z,27.29
2023-03-24T03:01:01.649Z,27.30
2023-03-24T03:01:31.898Z,27.27
2023-03-24T03:02:01.685Z,27.32
2023-03-24T03:02:31.732Z,27.29
2023-03-24T03:03:01.773Z,27.29
2023-03-24T03:03:31.807Z,27.29
2023-03-24T03:04:01.880Z,27.30
2023-03-24T03:04:31.949Z,27.29
2023-03-24T03:05:01.991Z,27.30
2023-03-24T03:05:32.024Z,27.27
2023-03-24T03:06:02.056Z,27.30
2023-03-24T03:06:32.111Z,27.30
2023-03-24T03:07:02.144Z,27.30
2023-03-24T03:07:32.184Z,27.32
2023-03-24T03:08:02.239Z,27.30
2023-03-24T03:08:32.247Z,27.27
2023-03-24T03:09:02.325Z,27.27
2023-03-24T03:09:32.361Z,27.26
2023-03-24T03:10:02.388Z,27.30
2023-03-24T03:10:32.413Z,27.32
2023-03-24T03:11:02.457Z,27.27
2023-03-24T03:11:32.540Z,27.29
2023-03-24T03:12:02.564Z,27.27
2023-03-24T03:12:32.587Z,27.32
2023-03-24T03:13:02.633Z,27.27
2023-03-24T03:13:32.645Z,27.29
2023-03-24T03:14:02.684Z,27.27
2023-03-24T03:14:32.733Z,27.29
2023-03-24T03:15:02.894Z,27.26
2023-03-24T03:15:32.862Z,27.27
2023-03-24T03:16:02.901Z,27.27
2023-03-24T03:16:32.935Z,27.29
2023-03-24T03:17:02.965Z,27.27
2023-03-24T03:17:33.050Z,27.29
2023-03-24T03:18:03.127Z,27.29
2023-03-24T03:18:33.137Z,27.29
2023-03-24T03:19:03.176Z,27.30
2023-03-24T03:19:33.215Z,27.29
2023-03-24T03:20:03.224Z,27.29
2023-03-24T03:20:33.254Z,27.30
2023-03-24T03:21:03.279Z,27.27
2023-03-24T03:21:33.320Z,27.27
2023-03-24T03:22:03.354Z,27.27
2023-03-24T03:22:33.383Z,27.29
2023-03-24T03:23:03.413Z,27.30
2023-03-24T03:23:33.446Z,27.29
2023-03-24T03:24:03.473Z,27.32
2023-03-24T03:24:33.506Z,27.27
2023-03-24T03:25:03.564Z,27.30
2023-03-24T03:25:33.577Z,27.30
2023-03-24T03:26:03.608Z,27.27
2023-03-24T03:26:33.688Z,27.27
2023-03-24T03:27:03.715Z,27.29
2023-03-24T03:27:33.739Z,27.27
2023-03-24T03:28:03.789Z,27.27
2023-03-24T03:28:33.801Z,27.27
2023-03-24T03:29:03.841Z,27.29
2023-03-24T03:29:33.873Z,27.29
2023-03-24T03:30:03.916Z,27.27
2023-03-24T03:30:33.954Z,27.29
2023-03-24T03:31:04.010Z,27.27
2023-03-24T03:31:34.092Z,27.29
2023-03-24T03:32:04.126Z,27.26
2023-03-24T03:32:34.251Z,27.29
2023-03-24T03:33:04.292Z,27.26
2023-03-24T03:33:34.291Z,27.26
2023-03-24T03:34:04.285Z,27.27
2023-03-24T03:34:34.407Z,27.27
2023-03-24T03:35:04.396Z,27.27
2023-03-24T03:36:04.506Z,27.27
2023-03-24T03:36:34.495Z,27.29
2023-03-24T03:37:04.492Z,27.26
2023-03-24T03:37:34.619Z,27.29
2023-03-24T03:38:04.716Z,27.29
2023-03-24T03:38:34.836Z,27.29
2023-03-24T03:39:04.833Z,27.27
2023-03-24T03:39:34.949Z,27.27
2023-03-24T03:40:05.060Z,27.27
2023-03-24T03:40:35.055Z,27.29
2023-03-24T03:41:05.168Z,27.29
2023-03-24T03:41:35.287Z,27.27
2023-03-24T03:42:05.281Z,27.27
2023-03-24T03:42:35.401Z,27.27
2023-03-24T03:43:05.429Z,27.27
2023-03-24T03:43:35.460Z,27.26
2023-03-24T03:44:05.492Z,27.29
2023-03-24T03:44:35.516Z,27.27
2023-03-24T03:45:05.551Z,27.29
2023-03-24T03:45:35.603Z,27.27
2023-03-24T03:46:05.649Z,27.29
2023-03-24T03:46:35.713Z,27.26
2023-03-24T03:47:05.673Z,27.27
2023-03-24T03:47:35.754Z,27.29
2023-03-24T03:48:05.874Z,27.27
2023-03-24T03:48:35.810Z,27.29
2023-03-24T03:49:05.841Z,27.27
2023-03-24T03:49:35.874Z,27.27
2023-03-24T03:50:05.906Z,27.26
2023-03-24T03:50:35.963Z,27.29
2023-03-24T03:51:13.859Z,27.29
2023-03-24T03:51:36.033Z,27.29
2023-03-24T03:52:06.057Z,27.27
2023-03-24T03:52:36.095Z,27.27
2023-03-24T03:53:06.117Z,27.27
2023-03-24T03:53:36.157Z,27.26
2023-03-24T03:54:06.185Z,27.27
2023-03-24T03:54:36.216Z,27.29
2023-03-24T03:55:06.253Z,27.27
2023-03-24T03:55:36.280Z,27.27
2023-03-24T03:56:06.317Z,27.24
2023-03-24T03:56:36.408Z,27.24
2023-03-24T03:57:06.512Z,27.27
2023-03-24T03:57:36.556Z,27.24
2023-03-24T03:58:06.579Z,27.27
2023-03-24T03:58:36.606Z,27.27
2023-03-24T03:59:06.640Z,27.27
2023-03-24T03:59:36.666Z,27.27
2023-03-24T04:00:06.696Z,27.29
2023-03-24T04:00:36.741Z,27.30
2023-03-24T04:01:06.802Z,27.29
2023-03-24T04:01:36.813Z,27.27
2023-03-24T04:02:06.880Z,27.26
2023-03-24T04:02:37.016Z,27.27
2023-03-24T04:03:07.086Z,27.27
2023-03-24T04:03:37.194Z,27.27
2023-03-24T04:04:07.030Z,27.27
2023-03-24T04:04:37.060Z,27.27
2023-03-24T04:05:07.178Z,27.29
2023-03-24T04:05:37.197Z,27.29
2023-03-24T04:06:07.235Z,27.29
2023-03-24T04:06:37.278Z,27.26
2023-03-24T04:07:07.333Z,27.27
2023-03-24T04:07:37.307Z,27.29
2023-03-24T04:08:07.337Z,27.29
2023-03-24T04:08:37.363Z,27.32
2023-03-24T04:09:07.446Z,27.32
2023-03-24T04:09:37.457Z,27.29
2023-03-24T04:10:07.484Z,27.32
2023-03-24T04:10:37.523Z,27.32
2023-03-24T04:11:07.562Z,27.32
2023-03-24T04:11:37.578Z,27.34
2023-03-24T04:12:07.629Z,27.32
2023-03-24T04:12:37.657Z,27.34
2023-03-24T04:13:07.688Z,27.32
2023-03-24T04:13:37.711Z,27.33
2023-03-24T04:14:07.740Z,27.32
2023-03-24T04:14:37.775Z,27.33
2023-03-24T04:15:07.811Z,27.34
2023-03-24T04:15:37.836Z,27.33
2023-03-24T04:16:07.874Z,27.33
2023-03-24T04:16:37.963Z,27.33
2023-03-24T04:17:07.924Z,27.34
2023-03-24T04:17:37.982Z,27.37
2023-03-24T04:18:08.041Z,27.34
2023-03-24T04:18:38.071Z,27.37
2023-03-24T04:19:08.100Z,27.36
2023-03-24T04:19:38.136Z,27.37
2023-03-24T04:20:08.166Z,27.36
2023-03-24T04:20:38.204Z,27.36
2023-03-24T04:21:08.227Z,27.39
2023-03-24T04:21:38.285Z,27.34
2023-03-24T04:22:08.319Z,27.40
2023-03-24T04:22:38.373Z,27.39
2023-03-24T04:23:08.402Z,27.36
2023-03-24T04:23:38.424Z,27.39
2023-03-24T04:24:08.449Z,27.36
2023-03-24T04:24:38.478Z,27.40
2023-03-24T04:25:08.517Z,27.39
2023-03-24T04:25:38.537Z,27.37
2023-03-24T04:26:08.571Z,27.37
2023-03-24T04:26:38.599Z,27.39
2023-03-24T04:27:08.647Z,27.36
2023-03-24T04:27:38.753Z,27.37
2023-03-24T04:28:08.701Z,27.37
2023-03-24T04:28:38.735Z,27.37
2023-03-24T04:29:08.761Z,27.37
2023-03-24T04:29:38.785Z,27.39
2023-03-24T04:30:08.819Z,27.40
2023-03-24T04:30:38.853Z,27.39
2023-03-24T04:31:08.887Z,27.39
2023-03-24T04:31:39.005Z,27.40
2023-03-24T04:32:08.940Z,27.37
2023-03-24T04:33:09.023Z,27.39
2023-03-24T04:33:39.028Z,27.37
2023-03-24T04:34:39.092Z,27.39
2023-03-24T04:35:09.204Z,27.36
2023-03-24T04:35:39.220Z,27.36
2023-03-24T04:36:09.343Z,27.39
2023-03-24T04:36:39.336Z,27.40
2023-03-24T04:37:09.460Z,27.39
2023-03-24T04:37:39.464Z,27.36
2023-03-24T04:38:09.475Z,27.37
2023-03-24T04:38:39.461Z,27.34
2023-03-24T04:39:09.579Z,27.37
2023-03-24T04:39:39.569Z,27.37
2023-03-24T04:40:09.698Z,27.33
2023-03-24T04:40:39.802Z,27.37
2023-03-24T04:41:09.933Z,27.36
2023-03-24T04:41:39.917Z,27.36
2023-03-24T04:42:10.037Z,27.36
2023-03-24T04:42:40.156Z,27.34
2023-03-24T04:43:10.194Z,27.37
2023-03-24T04:43:40.225Z,27.34
2023-03-24T04:44:10.261Z,27.34
2023-03-24T04:44:40.288Z,27.33
2023-03-24T04:45:10.329Z,27.36
2023-03-24T04:45:40.372Z,27.34
2023-03-24T04:46:10.462Z,27.34
2023-03-24T04:46:40.499Z,27.37
2023-03-24T04:47:10.537Z,27.37
2023-03-24T04:47:40.618Z,27.36
2023-03-24T04:48:10.728Z,27.36
2023-03-24T04:48:40.668Z,27.36
2023-03-24T04:49:10.700Z,27.37
2023-03-24T04:49:40.726Z,27.36
2023-03-24T04:50:10.772Z,27.36
2023-03-24T04:50:40.788Z,27.36
2023-03-24T04:51:10.818Z,27.39
2023-03-24T04:51:40.849Z,27.37
2023-03-24T04:52:10.878Z,27.39
2023-03-24T04:52:40.913Z,27.37
2023-03-24T04:53:10.943Z,27.37
2023-03-24T04:53:40.979Z,27.36
2023-03-24T04:54:11.008Z,27.40
2023-03-24T04:54:41.033Z,27.36
2023-03-24T04:55:11.061Z,27.39
2023-03-24T04:55:41.088Z,27.37
2023-03-24T04:56:11.127Z,27.39
2023-03-24T04:56:41.213Z,27.37
2023-03-24T04:57:11.287Z,27.40
2023-03-24T04:57:41.225Z,27.40
2023-03-24T04:58:11.318Z,27.41
2023-03-24T04:58:41.351Z,27.40
2023-03-24T04:59:11.381Z,27.40
2023-03-24T04:59:41.411Z,27.37
2023-03-24T05:00:11.455Z,27.39
2023-03-24T05:00:41.539Z,27.39
2023-03-24T05:01:11.572Z,27.39
2023-03-24T05:01:41.615Z,27.36
2023-03-24T05:02:11.650Z,27.39
2023-03-24T05:02:41.695Z,27.37
2023-03-24T05:03:11.789Z,27.36
2023-03-24T05:03:41.825Z,27.36
2023-03-24T05:04:11.902Z,27.37
2023-03-24T05:04:41.924Z,27.37
2023-03-24T05:05:11.948Z,27.37
2023-03-24T05:05:42.216Z,27.39
2023-03-24T05:06:12.016Z,27.37
2023-03-24T05:06:42.048Z,27.36
2023-03-24T05:07:12.081Z,27.37
2023-03-24T05:07:42.117Z,27.37
2023-03-24T05:08:12.153Z,27.39
2023-03-24T05:08:42.199Z,27.36
2023-03-24T05:09:12.217Z,27.36
2023-03-24T05:09:42.253Z,27.37
2023-03-24T05:10:12.294Z,27.36
2023-03-24T05:10:42.338Z,27.36
2023-03-24T05:11:12.362Z,27.36
2023-03-24T05:11:42.396Z,27.37
2023-03-24T05:12:12.425Z,27.37
2023-03-24T05:12:42.474Z,27.34
2023-03-24T05:13:12.501Z,27.37
2023-03-24T05:13:42.535Z,27.37
2023-03-24T05:14:12.573Z,27.37
2023-03-24T05:14:42.600Z,27.39
2023-03-24T05:15:12.629Z,27.39
2023-03-24T05:15:42.787Z,27.36
2023-03-24T05:16:12.675Z,27.36
2023-03-24T05:16:42.756Z,27.34
2023-03-24T05:17:12.781Z,27.37
2023-03-24T05:17:42.886Z,27.37
2023-03-24T05:18:12.960Z,27.36
2023-03-24T05:18:43.053Z,27.39
2023-03-24T05:19:13.085Z,27.39
2023-03-24T05:19:43.208Z,27.39
2023-03-24T05:20:13.207Z,27.40
2023-03-24T05:20:43.238Z,27.41
2023-03-24T05:21:13.266Z,27.40
2023-03-24T05:21:43.297Z,27.41
2023-03-24T05:22:13.329Z,27.43
2023-03-24T05:22:43.541Z,27.41
2023-03-24T05:23:13.447Z,27.40
2023-03-24T05:23:43.476Z,27.37
2023-03-24T05:24:13.516Z,27.39
2023-03-24T05:24:43.550Z,27.40
2023-03-24T05:25:13.588Z,27.36
2023-03-24T05:25:43.782Z,27.40
2023-03-24T05:26:13.671Z,27.37
2023-03-24T05:26:43.704Z,27.39
2023-03-24T05:27:13.738Z,27.37
2023-03-24T05:27:44.098Z,27.37
2023-03-24T05:28:13.871Z,27.39
2023-03-24T05:29:13.889Z,27.37
2023-03-24T05:29:43.915Z,27.37
2023-03-24T05:30:13.958Z,27.37
2023-03-24T05:30:43.994Z,27.36
2023-03-24T05:31:14.073Z,27.36
2023-03-24T05:31:44.050Z,27.36
2023-03-24T05:32:14.093Z,27.34
2023-03-24T05:32:46.725Z,27.36
2023-03-24T05:33:14.259Z,27.36
2023-03-24T05:33:44.244Z,27.34
2023-03-24T05:34:14.336Z,27.36
2023-03-24T05:34:44.316Z,27.36
2023-03-24T05:35:14.326Z,27.36
2023-03-24T05:35:44.602Z,27.36
2023-03-24T05:36:14.459Z,27.32
2023-03-24T05:36:44.600Z,27.36
2023-03-24T05:37:14.473Z,27.36
2023-03-24T05:38:14.663Z,27.39
2023-03-24T05:38:44.784Z,27.39
2023-03-24T05:39:14.898Z,27.36
2023-03-24T05:39:44.972Z,27.34
2023-03-24T05:40:15.116Z,27.36
2023-03-24T05:40:45.082Z,27.36
2023-03-24T05:41:15.195Z,27.34
2023-03-24T05:41:45.319Z,27.36
2023-03-24T05:42:15.311Z,27.34
2023-03-24T05:42:45.309Z,27.34
2023-03-24T05:43:15.383Z,27.40
2023-03-24T05:43:45.420Z,27.37
2023-03-24T05:44:15.444Z,27.34
2023-03-24T05:44:45.486Z,27.34
2023-03-24T05:45:15.535Z,27.39
2023-03-24T05:45:45.721Z,27.36
2023-03-24T05:46:15.648Z,27.36
2023-03-24T05:46:45.728Z,27.37
2023-03-24T05:47:15.742Z,27.37
2023-03-24T05:47:45.819Z,27.40
2023-03-24T05:48:15.851Z,27.39
2023-03-24T05:48:45.875Z,27.39
2023-03-24T05:49:15.931Z,27.39
2023-03-24T05:49:45.936Z,27.40
2023-03-24T05:50:15.968Z,27.39
2023-03-24T05:50:46.003Z,27.40
2023-03-24T05:51:16.046Z,27.41
2023-03-24T05:51:46.069Z,27.43
2023-03-24T05:52:16.106Z,27.41
2023-03-24T05:52:46.161Z,27.40
2023-03-24T05:53:16.212Z,27.43
2023-03-24T05:53:46.252Z,27.41
2023-03-24T05:54:16.274Z,27.41
2023-03-24T05:54:46.300Z,27.43
2023-03-24T05:55:16.334Z,27.43
2023-03-24T05:55:46.601Z,27.43
2023-03-24T05:56:16.478Z,27.44
2023-03-24T05:56:46.528Z,27.43
2023-03-24T05:57:16.586Z,27.44
2023-03-24T05:57:46.611Z,27.46
2023-03-24T05:58:16.642Z,27.46
2023-03-24T05:58:46.677Z,27.44
2023-03-24T05:59:16.712Z,27.46
2023-03-24T05:59:46.731Z,27.47
2023-03-24T06:00:16.785Z,27.46
2023-03-24T06:00:46.799Z,27.44
2023-03-24T06:01:16.833Z,27.44
2023-03-24T06:01:46.867Z,27.47
2023-03-24T06:02:16.918Z,27.46
2023-03-24T06:02:47.140Z,27.47
2023-03-24T06:03:17.303Z,27.46
2023-03-24T06:03:47.208Z,27.47
2023-03-24T06:04:17.170Z,27.46
2023-03-24T06:04:47.228Z,27.46
2023-03-24T06:05:17.236Z,27.44
2023-03-24T06:05:47.718Z,27.43
2023-03-24T06:06:17.297Z,27.43
2023-03-24T06:06:47.315Z,27.44
2023-03-24T06:07:17.354Z,27.44
2023-03-24T06:07:47.380Z,27.43
2023-03-24T06:08:17.409Z,27.44
2023-03-24T06:08:47.448Z,27.41
2023-03-24T06:09:17.479Z,27.39
2023-03-24T06:09:47.648Z,27.40
2023-03-24T06:10:17.541Z,27.40
2023-03-24T06:10:47.581Z,27.41
2023-03-24T06:11:17.607Z,27.46
2023-03-24T06:11:47.633Z,27.46
2023-03-24T06:12:17.662Z,27.46
2023-03-24T06:12:47.693Z,27.50
2023-03-24T06:13:17.724Z,27.49
2023-03-24T06:13:47.763Z,27.46
2023-03-24T06:14:17.793Z,27.47
2023-03-24T06:14:47.824Z,27.47
2023-03-24T06:15:17.852Z,27.47
2023-03-24T06:15:48.399Z,27.50
2023-03-24T06:16:17.921Z,27.47
2023-03-24T06:16:47.971Z,27.50
2023-03-24T06:17:18.006Z,27.47
2023-03-24T06:17:48.070Z,27.49
2023-03-24T06:18:18.106Z,27.50
2023-03-24T06:18:48.140Z,27.50
2023-03-24T06:19:18.167Z,27.44
2023-03-24T06:19:48.196Z,27.46
2023-03-24T06:20:18.283Z,27.44
2023-03-24T06:20:48.287Z,27.44
2023-03-24T06:21:18.322Z,27.47
2023-03-24T06:21:48.347Z,27.46
2023-03-24T06:22:18.385Z,27.44
2023-03-24T06:22:48.414Z,27.46
2023-03-24T06:23:18.443Z,27.44
2023-03-24T06:23:48.469Z,27.46
2023-03-24T06:24:18.534Z,27.47
2023-03-24T06:24:48.598Z,27.49
2023-03-24T06:25:18.614Z,27.50
2023-03-24T06:25:48.652Z,27.51
2023-03-24T06:26:18.681Z,27.51
2023-03-24T06:26:48.712Z,27.51
2023-03-24T06:27:18.780Z,27.54
2023-03-24T06:27:48.830Z,27.54
2023-03-24T06:28:18.886Z,27.54
2023-03-24T06:28:48.924Z,27.56
2023-03-24T06:29:18.960Z,27.56
2023-03-24T06:29:48.989Z,27.54
2023-03-24T06:30:19.016Z,27.56
2023-03-24T06:30:49.162Z,27.58
2023-03-24T06:31:19.206Z,27.60
2023-03-24T06:31:49.116Z,27.60
2023-03-24T06:32:49.155Z,27.61
2023-03-24T06:33:19.263Z,27.60
2023-03-24T06:33:49.253Z,27.60
2023-03-24T06:34:19.248Z,27.61
2023-03-24T06:34:49.364Z,27.61
2023-03-24T06:35:19.479Z,27.60
2023-03-24T06:35:49.763Z,27.62
2023-03-24T06:36:19.611Z,27.62
2023-03-24T06:37:19.807Z,27.61
2023-03-24T06:37:49.927Z,27.61
2023-03-24T06:38:19.925Z,27.64
2023-03-24T06:38:50.964Z,27.64
2023-03-24T06:39:20.057Z,27.61
2023-03-24T06:39:50.177Z,27.62
2023-03-24T06:40:20.314Z,27.60
2023-03-24T06:40:50.410Z,27.62
2023-03-24T06:41:20.408Z,27.64
2023-03-24T06:42:20.488Z,27.67
2023-03-24T06:42:50.509Z,27.65
2023-03-24T06:43:20.547Z,27.68
2023-03-24T06:43:50.576Z,27.71
2023-03-24T06:44:20.605Z,27.71